createdAt,value
2022-10-09T00:00:34.432Z,7.83
2022-10-09T00:01:34.423Z,7.80
2022-10-09T00:02:34.638Z,7.77
2022-10-09T00:03:34.415Z,7.75
2022-10-09T00:04:34.389Z,7.74
2022-10-09T00:05:34.413Z,7.71
2022-10-09T00:06:34.375Z,7.71
2022-10-09T00:07:34.454Z,7.67
2022-10-09T00:08:34.334Z,7.67
2022-10-09T00:09:34.346Z,7.63
2022-10-09T00:10:34.431Z,7.61
2022-10-09T00:11:34.356Z,7.61
2022-10-09T00:12:34.304Z,7.57
2022-10-09T00:13:34.360Z,7.58
2022-10-09T00:14:34.287Z,7.53
2022-10-09T00:15:34.262Z,7.50
2022-10-09T00:16:34.297Z,7.48
2022-10-09T00:17:34.244Z,7.45
2022-10-09T00:18:34.237Z,7.40
2022-10-09T00:19:34.232Z,7.35
2022-10-09T00:20:34.221Z,7.32
2022-10-09T00:21:34.239Z,7.28
2022-10-09T00:22:34.197Z,7.27
2022-10-09T00:23:34.201Z,7.21
2022-10-09T00:24:34.177Z,7.20
2022-10-09T00:25:34.254Z,7.17
2022-10-09T00:26:34.141Z,7.16
2022-10-09T00:27:34.143Z,7.20
2022-10-09T00:28:38.343Z,7.21
2022-10-09T00:29:34.139Z,7.20
2022-10-09T00:30:34.202Z,7.16
2022-10-09T00:31:34.115Z,7.13
2022-10-09T00:32:34.162Z,7.09
2022-10-09T00:33:34.113Z,7.03
2022-10-09T00:34:34.069Z,6.97
2022-10-09T00:35:34.116Z,6.89
2022-10-09T00:36:34.041Z,6.84
2022-10-09T00:37:34.042Z,6.77
2022-10-09T00:38:34.031Z,6.71
2022-10-09T00:39:34.043Z,6.62
2022-10-09T00:40:34.058Z,6.61
2022-10-09T00:41:34.063Z,6.56
2022-10-09T00:42:34.004Z,6.54
2022-10-09T00:43:33.975Z,6.51
2022-10-09T00:44:33.946Z,6.46
2022-10-09T00:45:34.002Z,6.43
2022-10-09T00:46:34.070Z,6.37
2022-10-09T00:47:33.978Z,6.30
2022-10-09T00:48:33.925Z,6.25
2022-10-09T00:49:33.921Z,6.18
2022-10-09T00:50:33.994Z,6.17
2022-10-09T00:51:33.893Z,6.22
2022-10-09T00:52:33.878Z,6.28
2022-10-09T00:53:33.915Z,6.28
2022-10-09T00:54:33.867Z,6.27
2022-10-09T00:55:33.947Z,6.19
2022-10-09T00:56:33.854Z,6.18
2022-10-09T00:57:33.919Z,6.15
2022-10-09T00:58:33.817Z,6.14
2022-10-09T00:59:33.801Z,6.15
2022-10-09T01:00:33.881Z,6.15
2022-10-09T01:01:33.928Z,6.12
2022-10-09T01:02:33.856Z,6.14
2022-10-09T01:03:33.888Z,6.09
2022-10-09T01:04:34.051Z,6.06
2022-10-09T01:05:33.800Z,6.00
2022-10-09T01:06:33.728Z,5.97
2022-10-09T01:07:33.725Z,5.91
2022-10-09T01:08:33.718Z,5.85
2022-10-09T01:09:33.741Z,5.78
2022-10-09T01:10:33.690Z,5.76
2022-10-09T01:11:33.722Z,5.72
2022-10-09T01:12:33.716Z,5.67
2022-10-09T01:13:33.662Z,5.61
2022-10-09T01:14:33.638Z,5.56
2022-10-09T01:15:33.758Z,5.51
2022-10-09T01:16:33.639Z,5.45
2022-10-09T01:17:33.684Z,5.43
2022-10-09T01:18:33.607Z,5.42
2022-10-09T01:19:33.588Z,5.45
2022-10-09T01:20:34.018Z,5.48
2022-10-09T01:21:33.570Z,5.49
2022-10-09T01:22:33.557Z,5.51
2022-10-09T01:23:33.578Z,5.53
2022-10-09T01:24:33.555Z,5.49
2022-10-09T01:25:33.581Z,5.48
2022-10-09T01:26:33.520Z,5.49
2022-10-09T01:27:33.527Z,5.48
2022-10-09T01:28:33.601Z,5.46
2022-10-09T01:29:33.485Z,5.45
2022-10-09T01:30:33.531Z,5.40
2022-10-09T01:31:33.452Z,5.38
2022-10-09T01:32:33.439Z,5.39
2022-10-09T01:33:33.509Z,5.45
2022-10-09T01:34:33.470Z,5.53
2022-10-09T01:35:33.678Z,5.51
2022-10-09T01:36:33.483Z,5.53
2022-10-09T01:37:33.394Z,5.49
2022-10-09T01:38:33.373Z,5.49
2022-10-09T01:39:33.426Z,5.43
2022-10-09T01:40:33.387Z,5.42
2022-10-09T01:41:33.357Z,5.38
2022-10-09T01:42:33.344Z,5.36
2022-10-09T01:43:33.314Z,5.31
2022-10-09T01:44:33.314Z,5.28
2022-10-09T01:45:33.374Z,5.22
2022-10-09T01:46:33.439Z,5.17
2022-10-09T01:47:33.350Z,5.13
2022-10-09T01:48:33.280Z,5.07
2022-10-09T01:49:33.338Z,5.04
2022-10-09T01:50:33.346Z,5.04
2022-10-09T01:51:33.249Z,5.00
2022-10-09T01:52:33.240Z,5.00
2022-10-09T01:53:33.232Z,5.00
2022-10-09T01:54:33.209Z,5.00
2022-10-09T01:55:33.221Z,5.07
2022-10-09T01:56:33.239Z,5.21
2022-10-09T01:57:33.291Z,5.25
2022-10-09T01:58:33.198Z,5.30
2022-10-09T01:59:33.178Z,5.33
2022-10-09T02:00:33.167Z,5.38
2022-10-09T02:01:33.197Z,5.43
2022-10-09T02:02:33.239Z,5.45
2022-10-09T02:03:33.122Z,5.48
2022-10-09T02:04:33.163Z,5.49
2022-10-09T02:05:33.166Z,5.51
2022-10-09T02:06:33.277Z,5.53
2022-10-09T02:07:33.101Z,5.51
2022-10-09T02:08:33.078Z,5.49
2022-10-09T02:09:33.068Z,5.49
2022-10-09T02:10:33.044Z,5.45
2022-10-09T02:11:33.038Z,5.43
2022-10-09T02:12:33.067Z,5.38
2022-10-09T02:13:33.018Z,5.35
2022-10-09T02:14:33.004Z,5.30
2022-10-09T02:15:33.098Z,5.25
2022-10-09T02:16:37.029Z,5.21
2022-10-09T02:17:33.018Z,5.18
2022-10-09T02:18:33.024Z,5.07
2022-10-09T02:19:32.960Z,5.04
2022-10-09T02:20:33.071Z,5.00
2022-10-09T02:21:32.936Z,4.96
2022-10-09T02:22:32.927Z,4.91
2022-10-09T02:23:32.903Z,4.89
2022-10-09T02:24:32.940Z,4.85
2022-10-09T02:25:32.972Z,4.82
2022-10-09T02:26:32.872Z,4.78
2022-10-09T02:27:32.863Z,4.73
2022-10-09T02:28:32.894Z,4.70
2022-10-09T02:29:32.876Z,4.67
2022-10-09T02:30:32.865Z,4.63
2022-10-09T02:31:32.890Z,4.66
2022-10-09T02:32:32.808Z,4.66
2022-10-09T02:33:32.824Z,4.66
2022-10-09T02:34:32.781Z,4.63
2022-10-09T02:35:32.818Z,4.58
2022-10-09T02:36:32.803Z,4.62
2022-10-09T02:37:32.867Z,4.58
2022-10-09T02:38:32.742Z,4.58
2022-10-09T02:39:32.737Z,4.59
2022-10-09T02:40:32.821Z,4.62
2022-10-09T02:41:32.738Z,4.63
2022-10-09T02:42:32.825Z,4.60
2022-10-09T02:43:32.686Z,4.59
2022-10-09T02:44:32.704Z,4.55
2022-10-09T02:45:32.735Z,4.50
2022-10-09T02:46:32.748Z,4.42
2022-10-09T02:47:32.661Z,4.42
2022-10-09T02:48:32.672Z,4.40
2022-10-09T02:49:32.638Z,4.40
2022-10-09T02:50:32.629Z,4.42
2022-10-09T02:51:32.609Z,4.48
2022-10-09T02:52:32.701Z,4.47
2022-10-09T02:53:32.597Z,4.45
2022-10-09T02:54:32.568Z,4.42
2022-10-09T02:55:32.574Z,4.41
2022-10-09T02:56:36.642Z,4.41
2022-10-09T02:57:33.554Z,4.37
2022-10-09T02:58:32.547Z,4.37
2022-10-09T02:59:32.538Z,4.33
2022-10-09T03:00:32.654Z,4.34
2022-10-09T03:01:32.594Z,4.30
2022-10-09T03:02:32.612Z,4.29
2022-10-09T03:03:32.494Z,4.26
2022-10-09T03:04:32.509Z,4.23
2022-10-09T03:05:32.568Z,4.18
2022-10-09T03:06:32.506Z,4.12
2022-10-09T03:07:32.442Z,4.09
2022-10-09T03:08:32.630Z,4.08
2022-10-09T03:09:33.871Z,4.04
2022-10-09T03:10:32.451Z,4.00
2022-10-09T03:11:32.401Z,3.98
2022-10-09T03:12:32.408Z,3.94
2022-10-09T03:13:32.378Z,3.91
2022-10-09T03:14:32.360Z,3.93
2022-10-09T03:15:32.418Z,3.88
2022-10-09T03:16:32.415Z,3.91
2022-10-09T03:17:32.344Z,3.90
2022-10-09T03:18:32.321Z,3.90
2022-10-09T03:19:32.340Z,3.88
2022-10-09T03:20:32.329Z,3.87
2022-10-09T03:21:32.318Z,3.83
2022-10-09T03:22:32.356Z,3.83
2022-10-09T03:23:32.391Z,3.79
2022-10-09T03:24:32.251Z,3.75
2022-10-09T03:25:32.282Z,3.73
2022-10-09T03:26:32.243Z,3.70
2022-10-09T03:27:32.252Z,3.69
2022-10-09T03:28:32.275Z,3.68
2022-10-09T03:29:32.207Z,3.66
2022-10-09T03:30:32.192Z,3.65
2022-10-09T03:31:52.406Z,3.61
2022-10-09T03:32:33.238Z,3.61
2022-10-09T03:33:32.170Z,3.61
2022-10-09T03:34:32.192Z,3.60
2022-10-09T03:35:32.148Z,3.60
2022-10-09T03:36:32.230Z,3.62
2022-10-09T03:37:32.194Z,3.68
2022-10-09T03:38:32.128Z,3.73
2022-10-09T03:39:32.165Z,3.80
2022-10-09T03:40:32.137Z,3.84
2022-10-09T03:41:32.085Z,3.87
2022-10-09T03:42:32.061Z,3.90
2022-10-09T03:43:32.075Z,3.91
2022-10-09T03:44:32.063Z,3.91
2022-10-09T03:45:32.030Z,3.93
2022-10-09T03:46:32.113Z,3.98
2022-10-09T03:47:32.028Z,4.00
2022-10-09T03:48:32.038Z,4.05
2022-10-09T03:49:32.050Z,4.08
2022-10-09T03:50:32.028Z,4.08
2022-10-09T03:51:31.983Z,4.11
2022-10-09T03:52:31.968Z,4.11
2022-10-09T03:53:31.981Z,4.09
2022-10-09T03:54:32.041Z,4.09
2022-10-09T03:55:31.980Z,4.08
2022-10-09T03:56:31.956Z,4.05
2022-10-09T03:57:31.921Z,4.02
2022-10-09T03:58:31.912Z,4.02
2022-10-09T03:59:31.895Z,4.02
2022-10-09T04:00:32.011Z,3.98
2022-10-09T04:01:31.928Z,3.96
2022-10-09T04:02:31.958Z,3.94
2022-10-09T04:03:31.892Z,3.97
2022-10-09T04:04:31.837Z,3.94
2022-10-09T04:05:31.867Z,3.93
2022-10-09T04:06:31.908Z,3.91
2022-10-09T04:07:31.808Z,3.90
2022-10-09T04:08:31.799Z,3.86
2022-10-09T04:09:31.792Z,3.87
2022-10-09T04:10:31.999Z,3.83
2022-10-09T04:11:31.779Z,3.80
2022-10-09T04:12:31.759Z,3.78
2022-10-09T04:13:31.773Z,3.75
2022-10-09T04:14:31.747Z,3.70
2022-10-09T04:15:31.769Z,3.68
2022-10-09T04:16:31.841Z,3.65
2022-10-09T04:17:31.710Z,3.60
2022-10-09T04:18:31.687Z,3.58
2022-10-09T04:19:31.703Z,3.52
2022-10-09T04:20:31.688Z,3.50
2022-10-09T04:21:31.655Z,3.43
2022-10-09T04:22:31.652Z,3.42
2022-10-09T04:23:31.736Z,3.40
2022-10-09T04:24:31.648Z,3.45
2022-10-09T04:25:31.730Z,3.43
2022-10-09T04:26:31.625Z,3.43
2022-10-09T04:27:31.596Z,3.43
2022-10-09T04:28:31.631Z,3.42
2022-10-09T04:29:31.594Z,3.42
2022-10-09T04:30:31.600Z,3.40
2022-10-09T04:31:31.600Z,3.40
2022-10-09T04:32:31.558Z,3.40
2022-10-09T04:33:31.630Z,3.40
2022-10-09T04:34:31.585Z,3.40
2022-10-09T04:35:31.535Z,3.36
2022-10-09T04:36:31.516Z,3.36
2022-10-09T04:37:31.529Z,3.36
2022-10-09T04:38:31.479Z,3.33
2022-10-09T04:39:31.495Z,3.33
2022-10-09T04:40:31.451Z,3.31
2022-10-09T04:41:34.732Z,3.28
2022-10-09T04:42:32.436Z,3.24
2022-10-09T04:43:31.465Z,3.24
2022-10-09T04:44:31.471Z,3.21
2022-10-09T04:45:31.487Z,3.21
2022-10-09T04:46:31.449Z,3.18
2022-10-09T04:47:31.399Z,3.18
2022-10-09T04:48:31.456Z,3.18
2022-10-09T04:49:31.386Z,3.17
2022-10-09T04:50:31.376Z,3.17
2022-10-09T04:51:31.387Z,3.20
2022-10-09T04:52:31.374Z,3.21
2022-10-09T04:53:31.325Z,3.20
2022-10-09T04:54:31.315Z,3.20
2022-10-09T04:55:31.312Z,3.17
2022-10-09T04:56:31.308Z,3.13
2022-10-09T04:57:31.298Z,3.11
2022-10-09T04:58:31.275Z,3.06
2022-10-09T04:59:31.267Z,3.06
2022-10-09T05:00:31.243Z,3.03
2022-10-09T05:01:37.106Z,3.05
2022-10-09T05:02:32.321Z,3.05
2022-10-09T05:03:31.276Z,3.00
2022-10-09T05:04:31.248Z,2.97
2022-10-09T05:05:31.218Z,2.95
2022-10-09T05:06:31.224Z,2.96
2022-10-09T05:07:31.176Z,2.92
2022-10-09T05:08:31.171Z,2.89
2022-10-09T05:09:31.152Z,2.87
2022-10-09T05:10:31.210Z,2.84
2022-10-09T05:11:31.155Z,2.81
2022-10-09T05:12:31.363Z,2.78
2022-10-09T05:13:31.132Z,2.79
2022-10-09T05:14:31.118Z,2.81
2022-10-09T05:15:31.175Z,2.82
2022-10-09T05:16:31.146Z,2.82
2022-10-09T05:17:31.287Z,2.81
2022-10-09T05:18:31.050Z,2.82
2022-10-09T05:19:31.109Z,2.82
2022-10-09T05:20:31.040Z,2.82
2022-10-09T05:21:31.091Z,2.82
2022-10-09T05:22:31.148Z,2.82
2022-10-09T05:23:31.053Z,2.79
2022-10-09T05:24:31.001Z,2.79
2022-10-09T05:25:31.031Z,2.77
2022-10-09T05:26:31.003Z,2.75
2022-10-09T05:27:31.057Z,2.78
2022-10-09T05:28:31.011Z,2.75
2022-10-09T05:29:30.975Z,2.78
2022-10-09T05:30:30.934Z,2.81
2022-10-09T05:31:30.952Z,2.85
2022-10-09T05:32:30.923Z,2.89
2022-10-09T05:33:30.925Z,2.93
2022-10-09T05:34:30.910Z,2.93
2022-10-09T05:35:30.908Z,2.96
2022-10-09T05:36:30.960Z,3.00
2022-10-09T05:37:30.863Z,3.06
2022-10-09T05:38:30.841Z,3.08
2022-10-09T05:39:30.847Z,3.14
2022-10-09T05:40:30.856Z,3.15
2022-10-09T05:41:30.824Z,3.21
2022-10-09T05:42:30.824Z,3.26
2022-10-09T05:43:30.830Z,3.26
2022-10-09T05:44:30.792Z,3.31
2022-10-09T05:45:30.875Z,3.32
2022-10-09T05:46:30.764Z,3.33
2022-10-09T05:47:30.850Z,3.33
2022-10-09T05:48:30.763Z,3.39
2022-10-09T05:49:30.742Z,3.39
2022-10-09T05:50:30.955Z,3.39
2022-10-09T05:51:30.709Z,3.39
2022-10-09T05:52:30.766Z,3.39
2022-10-09T05:53:30.701Z,3.39
2022-10-09T05:54:30.703Z,3.40
2022-10-09T05:55:30.676Z,3.39
2022-10-09T05:56:30.654Z,3.39
2022-10-09T05:57:30.681Z,3.36
2022-10-09T05:58:30.636Z,3.36
2022-10-09T05:59:30.639Z,3.36
2022-10-09T06:00:30.639Z,3.42
2022-10-09T06:01:30.732Z,3.40
2022-10-09T06:02:30.634Z,3.40
2022-10-09T06:03:30.603Z,3.40
2022-10-09T06:04:30.585Z,3.40
2022-10-09T06:05:30.645Z,3.39
2022-10-09T06:06:30.565Z,3.42
2022-10-09T06:07:30.636Z,3.45
2022-10-09T06:08:30.549Z,3.45
2022-10-09T06:09:30.576Z,3.45
2022-10-09T06:10:32.649Z,3.47
2022-10-09T06:11:30.522Z,3.50
2022-10-09T06:12:30.499Z,3.51
2022-10-09T06:13:30.619Z,3.54
2022-10-09T06:14:30.807Z,3.55
2022-10-09T06:15:30.492Z,3.57
2022-10-09T06:16:30.500Z,3.61
2022-10-09T06:17:30.438Z,3.61
2022-10-09T06:18:30.439Z,3.61
2022-10-09T06:19:30.410Z,3.61
2022-10-09T06:20:30.402Z,3.65
2022-10-09T06:21:30.400Z,3.66
2022-10-09T06:22:30.414Z,3.69
2022-10-09T06:23:30.382Z,3.66
2022-10-09T06:24:30.382Z,3.69
2022-10-09T06:25:30.398Z,3.73
2022-10-09T06:26:30.409Z,3.78
2022-10-09T06:27:30.339Z,3.79
2022-10-09T06:28:30.350Z,3.80
2022-10-09T06:29:30.367Z,3.84
2022-10-09T06:30:33.831Z,3.86
2022-10-09T06:31:31.305Z,3.88
2022-10-09T06:32:30.280Z,3.90
2022-10-09T06:33:30.266Z,3.96
2022-10-09T06:34:30.266Z,3.96
2022-10-09T06:35:30.243Z,3.98
2022-10-09T06:36:30.289Z,4.02
2022-10-09T06:37:30.240Z,4.08
2022-10-09T06:38:30.261Z,4.11
2022-10-09T06:39:30.291Z,4.09
2022-10-09T06:40:30.201Z,4.11
2022-10-09T06:41:30.215Z,4.15
2022-10-09T06:42:30.186Z,4.16
2022-10-09T06:43:30.166Z,4.18
2022-10-09T06:44:30.265Z,4.23
2022-10-09T06:45:30.200Z,4.24
2022-10-09T06:46:30.217Z,4.26
2022-10-09T06:47:30.151Z,4.27
2022-10-09T06:48:30.188Z,4.29
2022-10-09T06:49:30.141Z,4.29
2022-10-09T06:50:30.069Z,4.29
2022-10-09T06:51:30.110Z,4.30
2022-10-09T06:52:30.089Z,4.32
2022-10-09T06:53:30.082Z,4.37
2022-10-09T06:54:30.437Z,4.40
2022-10-09T06:55:30.058Z,4.36
2022-10-09T06:56:30.037Z,4.41
2022-10-09T06:57:30.065Z,4.41
2022-10-09T06:58:30.081Z,4.44
2022-10-09T06:59:30.067Z,4.42
2022-10-09T07:00:29.996Z,4.41
2022-10-09T07:01:30.057Z,4.42
2022-10-09T07:02:30.032Z,4.44
2022-10-09T07:03:29.973Z,4.48
2022-10-09T07:04:29.959Z,4.50
2022-10-09T07:05:30.024Z,4.51
2022-10-09T07:06:29.947Z,4.51
2022-10-09T07:07:29.918Z,4.51
2022-10-09T07:08:29.919Z,4.48
2022-10-09T07:09:29.926Z,4.48
2022-10-09T07:10:30.081Z,4.45
2022-10-09T07:11:29.873Z,4.45
2022-10-09T07:12:29.875Z,4.47
2022-10-09T07:13:29.877Z,4.44
2022-10-09T07:14:29.855Z,4.41
2022-10-09T07:15:30.002Z,4.41
2022-10-09T07:16:29.943Z,4.42
2022-10-09T07:17:29.950Z,4.48
2022-10-09T07:18:29.811Z,4.52
2022-10-09T07:19:29.797Z,4.59
2022-10-09T07:20:29.794Z,4.62
2022-10-09T07:21:29.763Z,4.66
2022-10-09T07:22:30.046Z,4.62
2022-10-09T07:23:29.755Z,4.63
2022-10-09T07:24:30.154Z,4.66
2022-10-09T07:25:29.753Z,4.69
2022-10-09T07:26:29.701Z,4.73
2022-10-09T07:27:29.715Z,4.73
2022-10-09T07:28:29.797Z,4.70
2022-10-09T07:29:29.693Z,4.73
2022-10-09T07:30:29.654Z,4.77
2022-10-09T07:31:29.651Z,4.84
2022-10-09T07:32:29.656Z,4.92
2022-10-09T07:33:29.647Z,5.02
2022-10-09T07:34:29.771Z,5.12
2022-10-09T07:35:29.634Z,5.17
2022-10-09T07:36:29.625Z,5.20
2022-10-09T07:37:29.589Z,5.15
2022-10-09T07:38:29.626Z,5.17
2022-10-09T07:39:31.103Z,5.17
2022-10-09T07:40:29.713Z,5.21
2022-10-09T07:41:29.568Z,5.20
2022-10-09T07:42:30.222Z,5.21
2022-10-09T07:43:29.551Z,5.25
2022-10-09T07:44:29.539Z,5.25
2022-10-09T07:45:29.516Z,5.21
2022-10-09T07:46:33.200Z,5.27
2022-10-09T07:47:29.482Z,5.31
2022-10-09T07:48:29.540Z,5.38
2022-10-09T07:49:29.497Z,5.43
2022-10-09T07:50:29.518Z,5.49
2022-10-09T07:51:29.449Z,5.57
2022-10-09T07:52:29.454Z,5.63
2022-10-09T07:53:33.757Z,5.68
2022-10-09T07:54:30.433Z,5.74
2022-10-09T07:55:29.391Z,5.78
2022-10-09T07:56:29.445Z,5.79
2022-10-09T07:57:29.375Z,5.82
2022-10-09T07:58:29.380Z,5.91
2022-10-09T07:59:29.434Z,6.01
2022-10-09T08:00:29.370Z,6.04
2022-10-09T08:01:29.389Z,6.03
2022-10-09T08:02:29.365Z,6.09
2022-10-09T08:03:29.374Z,6.12
2022-10-09T08:04:29.563Z,6.12
2022-10-09T08:05:29.298Z,6.15
2022-10-09T08:06:29.300Z,6.17
2022-10-09T08:07:34.108Z,6.15
2022-10-09T08:08:30.270Z,6.19
2022-10-09T08:09:29.282Z,6.30
2022-10-09T08:10:29.254Z,6.30
2022-10-09T08:11:29.643Z,6.34
2022-10-09T08:12:29.251Z,6.36
2022-10-09T08:13:29.221Z,6.38
2022-10-09T08:14:29.232Z,6.40
2022-10-09T08:15:29.230Z,6.48
2022-10-09T08:16:29.215Z,6.56
2022-10-09T08:17:29.397Z,6.61
2022-10-09T08:18:29.213Z,6.61
2022-10-09T08:19:29.169Z,6.64
2022-10-09T08:20:29.195Z,6.71
2022-10-09T08:21:29.130Z,6.76
2022-10-09T08:22:29.136Z,6.81
2022-10-09T08:23:29.235Z,6.94
2022-10-09T08:24:29.093Z,6.99
2022-10-09T08:25:29.102Z,7.06
2022-10-09T08:26:29.066Z,7.12
2022-10-09T08:27:29.072Z,7.20
2022-10-09T08:28:29.131Z,7.23
2022-10-09T08:29:29.064Z,7.21
2022-10-09T08:30:29.111Z,7.28
2022-10-09T08:31:29.189Z,7.35
2022-10-09T08:32:29.042Z,7.40
2022-10-09T08:33:29.029Z,7.34
2022-10-09T08:34:29.009Z,7.25
2022-10-09T08:35:32.408Z,7.25
2022-10-09T08:36:29.974Z,7.28
2022-10-09T08:37:28.953Z,7.28
2022-10-09T08:38:46.845Z,7.32
2022-10-09T08:39:29.985Z,7.42
2022-10-09T08:40:28.912Z,7.46
2022-10-09T08:41:28.963Z,7.50
2022-10-09T08:42:28.894Z,7.71
2022-10-09T08:43:28.984Z,7.83
2022-10-09T08:44:29.002Z,7.82
2022-10-09T08:45:28.921Z,7.77
2022-10-09T08:46:29.041Z,7.83
2022-10-09T08:47:29.004Z,7.92
2022-10-09T08:48:29.013Z,7.98
2022-10-09T08:49:28.841Z,8.07
2022-10-09T08:50:30.314Z,8.22
2022-10-09T08:51:28.814Z,8.30
2022-10-09T08:52:28.805Z,8.41
2022-10-09T08:53:28.843Z,8.50
2022-10-09T08:54:28.852Z,8.53
2022-10-09T08:55:28.852Z,8.62
2022-10-09T08:56:28.859Z,8.71
2022-10-09T08:57:28.867Z,8.79
2022-10-09T08:58:28.742Z,8.83
2022-10-09T08:59:28.873Z,8.96
2022-10-09T09:00:28.745Z,9.02
2022-10-09T09:01:28.750Z,9.10
2022-10-09T09:02:28.748Z,9.13
2022-10-09T09:03:28.670Z,9.18
2022-10-09T09:04:28.703Z,9.17
2022-10-09T09:05:28.739Z,9.18
2022-10-09T09:06:28.649Z,9.21
2022-10-09T09:07:28.625Z,9.32
2022-10-09T09:08:28.945Z,9.38
2022-10-09T09:09:28.743Z,9.39
2022-10-09T09:10:28.630Z,9.48
2022-10-09T09:11:28.962Z,9.60
2022-10-09T09:12:28.588Z,9.69
2022-10-09T09:13:28.778Z,9.83
2022-10-09T09:14:28.760Z,9.84
2022-10-09T09:15:28.993Z,9.91
2022-10-09T09:16:29.035Z,10.02
2022-10-09T09:17:28.558Z,10.09
2022-10-09T09:18:28.574Z,10.18
2022-10-09T09:19:28.811Z,10.32
2022-10-09T09:20:28.496Z,10.42
2022-10-09T09:21:28.834Z,10.53
2022-10-09T09:22:28.495Z,10.64
2022-10-09T09:23:28.832Z,10.74
2022-10-09T09:24:28.481Z,10.91
2022-10-09T09:25:29.907Z,11.06
2022-10-09T09:26:28.548Z,11.24
2022-10-09T09:27:28.826Z,11.44
2022-10-09T09:28:28.710Z,11.61
2022-10-09T09:29:28.490Z,11.82
2022-10-09T09:30:28.537Z,11.94
2022-10-09T09:31:28.590Z,12.05
2022-10-09T09:32:28.576Z,12.10
2022-10-09T09:33:30.524Z,12.16
2022-10-09T09:34:28.416Z,12.19
2022-10-09T09:35:28.364Z,12.42
2022-10-09T09:36:28.403Z,12.64
2022-10-09T09:37:28.415Z,12.78
2022-10-09T09:38:28.492Z,12.92
2022-10-09T09:40:24.266Z,13.10
2022-10-09T09:40:36.751Z,13.22
2022-10-09T09:41:29.267Z,13.28
2022-10-09T09:42:28.662Z,13.29
2022-10-09T09:43:28.345Z,13.26
2022-10-09T09:44:28.312Z,13.17
2022-10-09T09:45:28.303Z,13.22
2022-10-09T09:46:28.273Z,13.25
2022-10-09T09:47:28.280Z,13.17
2022-10-09T09:48:28.201Z,13.14
2022-10-09T09:49:28.191Z,13.15
2022-10-09T09:50:45.981Z,13.26
2022-10-09T09:51:29.909Z,13.26
2022-10-09T09:52:28.155Z,13.30
2022-10-09T09:53:28.414Z,13.38
2022-10-09T09:54:29.640Z,13.44
2022-10-09T09:55:28.134Z,13.45
2022-10-09T09:56:28.362Z,13.45
2022-10-09T09:57:28.099Z,13.49
2022-10-09T09:58:28.190Z,13.45
2022-10-09T09:59:29.564Z,13.45
2022-10-09T10:00:28.118Z,13.45
2022-10-09T10:01:28.318Z,13.49
2022-10-09T10:02:28.117Z,13.52
2022-10-09T10:03:28.143Z,13.54
2022-10-09T10:04:28.045Z,13.66
2022-10-09T10:05:28.445Z,13.78
2022-10-09T10:06:28.021Z,13.84
2022-10-09T10:07:29.499Z,13.89
2022-10-09T10:08:28.051Z,13.95
2022-10-09T10:09:28.196Z,14.03
2022-10-09T10:10:28.062Z,14.09
2022-10-09T10:11:28.506Z,14.09
2022-10-09T10:12:27.989Z,14.10
2022-10-09T10:13:27.930Z,14.12
2022-10-09T10:14:27.945Z,14.18
2022-10-09T10:15:27.907Z,14.24
2022-10-09T10:16:27.939Z,14.33
2022-10-09T10:17:27.893Z,14.42
2022-10-09T10:18:27.879Z,14.57
2022-10-09T10:19:27.882Z,14.72
2022-10-09T10:20:28.139Z,14.88
2022-10-09T10:21:27.868Z,14.96
2022-10-09T10:22:28.042Z,14.98
2022-10-09T10:23:27.863Z,15.01
2022-10-09T10:24:29.287Z,15.16
2022-10-09T10:25:27.883Z,15.19
2022-10-09T10:26:27.839Z,15.23
2022-10-09T10:27:27.795Z,15.34
2022-10-09T10:28:27.881Z,15.47
2022-10-09T10:29:27.888Z,15.50
2022-10-09T10:30:27.794Z,15.59
2022-10-09T10:31:27.829Z,15.67
2022-10-09T10:32:27.760Z,15.78
2022-10-09T10:33:27.716Z,15.87
2022-10-09T10:34:27.768Z,15.96
2022-10-09T10:35:27.690Z,16.01
2022-10-09T10:36:27.774Z,16.14
2022-10-09T10:37:27.671Z,16.31
2022-10-09T10:38:27.663Z,16.46
2022-10-09T10:39:27.878Z,16.56
2022-10-09T10:40:27.688Z,16.56
2022-10-09T10:41:27.701Z,16.52
2022-10-09T10:42:27.907Z,16.52
2022-10-09T10:43:27.712Z,16.50
2022-10-09T10:44:27.588Z,16.57
2022-10-09T10:45:28.144Z,16.71
2022-10-09T10:46:28.149Z,16.83
2022-10-09T10:47:27.561Z,16.86
2022-10-09T10:48:27.563Z,16.83
2022-10-09T10:49:31.666Z,16.83
2022-10-09T10:50:28.543Z,16.83
2022-10-09T10:51:27.545Z,16.71
2022-10-09T10:52:27.773Z,16.70
2022-10-09T10:53:27.483Z,16.61
2022-10-09T10:54:27.494Z,16.68
2022-10-09T10:55:27.486Z,16.66
2022-10-09T10:56:27.461Z,16.79
2022-10-09T10:57:28.911Z,16.97
2022-10-09T10:58:27.454Z,16.98
2022-10-09T10:59:27.454Z,17.00
2022-10-09T11:00:27.445Z,17.14
2022-10-09T11:01:27.537Z,17.15
2022-10-09T11:02:27.423Z,17.03
2022-10-09T11:03:27.645Z,17.04
2022-10-09T11:04:27.445Z,17.07
2022-10-09T11:05:27.378Z,17.12
2022-10-09T11:06:27.493Z,17.22
2022-10-09T11:07:27.365Z,17.26
2022-10-09T11:08:27.366Z,17.37
2022-10-09T11:09:28.791Z,17.55
2022-10-09T11:10:27.435Z,17.62
2022-10-09T11:11:27.303Z,17.59
2022-10-09T11:12:46.761Z,17.66
2022-10-09T11:13:28.461Z,17.74
2022-10-09T11:14:27.464Z,17.87
2022-10-09T11:15:27.319Z,17.84
2022-10-09T11:16:27.307Z,17.84
2022-10-09T11:17:27.341Z,17.87
2022-10-09T11:18:27.230Z,17.92
2022-10-09T11:19:27.353Z,17.96
2022-10-09T11:20:27.299Z,18.08
2022-10-09T11:21:27.319Z,18.18
2022-10-09T11:22:27.295Z,18.12
2022-10-09T11:23:27.644Z,18.03
2022-10-09T11:24:27.205Z,17.89
2022-10-09T11:25:27.211Z,17.89
2022-10-09T11:26:27.166Z,18.00
2022-10-09T11:27:27.143Z,18.10
2022-10-09T11:28:27.177Z,18.18
2022-10-09T11:29:27.108Z,18.37
2022-10-09T11:30:28.575Z,18.52
2022-10-09T11:31:27.115Z,18.62
2022-10-09T11:32:27.312Z,18.69
2022-10-09T11:33:27.420Z,18.70
2022-10-09T11:34:27.071Z,18.78
2022-10-09T11:35:27.098Z,18.84
2022-10-09T11:36:27.045Z,19.00
2022-10-09T11:37:27.077Z,19.21
2022-10-09T11:38:27.144Z,19.29
2022-10-09T11:39:27.070Z,19.36
2022-10-09T11:40:27.204Z,19.51
2022-10-09T11:41:27.071Z,19.63
2022-10-09T11:42:27.213Z,19.66
2022-10-09T11:43:27.000Z,19.77
2022-10-09T11:44:26.958Z,19.73
2022-10-09T11:45:27.475Z,19.66
2022-10-09T11:46:27.044Z,19.66
2022-10-09T11:47:27.265Z,19.71
2022-10-09T11:48:27.435Z,19.76
2022-10-09T11:49:26.985Z,19.80
2022-10-09T11:50:26.907Z,19.91
2022-10-09T11:51:27.018Z,19.96
2022-10-09T11:52:26.914Z,19.84
2022-10-09T11:53:26.865Z,19.73
2022-10-09T11:54:26.882Z,19.84
2022-10-09T11:55:26.987Z,19.99
2022-10-09T11:56:26.841Z,20.02
2022-10-09T11:57:26.849Z,19.87
2022-10-09T11:58:26.829Z,19.94
2022-10-09T11:59:28.274Z,19.91
2022-10-09T12:00:26.837Z,19.84
2022-10-09T12:01:26.913Z,19.84
2022-10-09T12:02:26.861Z,19.81
2022-10-09T12:03:26.767Z,19.81
2022-10-09T12:04:50.136Z,19.69
2022-10-09T12:05:27.887Z,19.80
2022-10-09T12:06:26.911Z,19.91
2022-10-09T12:07:26.835Z,19.96
2022-10-09T12:08:26.825Z,19.87
2022-10-09T12:09:26.711Z,19.87
2022-10-09T12:10:26.711Z,19.92
2022-10-09T12:11:26.699Z,20.03
2022-10-09T12:12:26.767Z,20.06
2022-10-09T12:13:26.880Z,20.03
2022-10-09T12:14:26.668Z,20.03
2022-10-09T12:15:26.652Z,20.18
2022-10-09T12:16:26.665Z,20.35
2022-10-09T12:17:26.620Z,20.50
2022-10-09T12:18:26.612Z,20.41
2022-10-09T12:19:26.716Z,20.29
2022-10-09T12:20:26.841Z,20.03
2022-10-09T12:21:26.657Z,20.08
2022-10-09T12:22:26.591Z,20.08
2022-10-09T12:23:27.946Z,20.29
2022-10-09T12:24:26.855Z,20.50
2022-10-09T12:25:26.698Z,20.61
2022-10-09T12:26:26.563Z,20.69
2022-10-09T12:27:26.751Z,20.76
2022-10-09T12:28:26.550Z,20.73
2022-10-09T12:29:27.533Z,20.76
2022-10-09T12:30:26.512Z,20.76
2022-10-09T12:31:26.617Z,20.87
2022-10-09T12:32:26.484Z,21.12
2022-10-09T12:33:26.580Z,21.27
2022-10-09T12:34:26.590Z,21.44
2022-10-09T12:35:26.614Z,21.27
2022-10-09T12:36:26.432Z,21.42
2022-10-09T12:37:26.450Z,21.61
2022-10-09T12:38:26.409Z,21.67
2022-10-09T12:39:27.871Z,21.74
2022-10-09T12:40:26.392Z,21.88
2022-10-09T12:41:26.397Z,22.02
2022-10-09T12:42:26.436Z,22.10
2022-10-09T12:43:26.361Z,22.17
2022-10-09T12:44:26.442Z,22.18
2022-10-09T12:45:26.474Z,21.99
2022-10-09T12:46:26.487Z,21.90
2022-10-09T12:47:26.496Z,21.74
2022-10-09T12:48:26.300Z,21.79
2022-10-09T12:49:26.314Z,21.59
2022-10-09T12:50:26.297Z,21.64
2022-10-09T12:51:26.264Z,21.69
2022-10-09T12:52:26.280Z,22.06
2022-10-09T12:53:26.243Z,22.20
2022-10-09T12:54:26.257Z,22.07
2022-10-09T12:55:26.319Z,21.96
2022-10-09T12:56:26.345Z,21.80
2022-10-09T12:57:27.838Z,21.74
2022-10-09T12:58:26.549Z,21.71
2022-10-09T12:59:26.585Z,21.83
2022-10-09T13:00:26.357Z,22.05
2022-10-09T13:01:26.478Z,22.24
2022-10-09T13:02:26.285Z,22.40
2022-10-09T13:03:26.168Z,22.43
2022-10-09T13:04:27.665Z,22.55
2022-10-09T13:05:26.145Z,22.58
2022-10-09T13:06:26.126Z,22.68
2022-10-09T13:07:26.590Z,22.82
2022-10-09T13:08:26.118Z,23.01
2022-10-09T13:09:26.104Z,23.12
2022-10-09T13:10:26.087Z,23.28